Mobile — WDD9649 — position and weather

sailwx.info

Track history (hours):
 
Tides and Currents Weather Stations Pressure Air Temp Water Temp Dewpoint Dewpoint Depression Visibility Wind Speed Wind Dir Waves Ship Positions

Mobile

Owner: Kirby Inland Marine, LP, Houston, TX. More information available from US FCC via Universal Licensing System and Coast Guard Vessel Documentation Center.

Last reported at 2018-Aug-14 04:29 UTC. Time now 2018-Aug-14 07:03 UTC.
Position N 30°23' W 086°56'.

Length 206 m.

Type: . MMSI: 367314430.

Date/timePositionNaut miles runAvg speedWind from/ knotsBaromVisibWave heightAir tempDewpointWater temp
2018-Aug-14 04:29N 30°23' W 086°56'3 6.8
2018-Aug-14 04:00N 30°24' W 086°53'3 6.8
2018-Aug-14 03:30N 30°24' W 086°49'3 6.7
2018-Aug-14 03:00N 30°24' W 086°45'8 5.9
2018-Aug-14 01:37N 30°24' W 086°35'1 6.5
2018-Aug-14 01:27N 30°24' W 086°34'2 3.7
2018-Aug-14 00:47N 30°25' W 086°32'1 3.2
2018-Aug-14 00:30N 30°26' W 086°31'3 5.0
2018-Aug-13 23:59N 30°27' W 086°28'1 2.7
2018-Aug-13 23:30N 30°29' W 086°28'2 0.2
2018-Aug-13 12:27N 30°31' W 086°29'1 3.2
2018-Aug-13 12:00N 30°29' W 086°29'1 2.6
2018-Aug-13 11:30N 30°28' W 086°28'3 5.7
2018-Aug-13 11:00N 30°26' W 086°30'7 5.4
2018-Aug-13 09:47N 30°24' W 086°38'2 4.5
2018-Aug-13 09:27N 30°24' W 086°40'2 4.8
2018-Aug-13 09:01N 30°24' W 086°42'2 4.9
2018-Aug-13 08:31N 30°24' W 086°45'3 5.5
2018-Aug-13 08:01N 30°24' W 086°48'3 5.6
2018-Aug-13 07:31N 30°24' W 086°51'3 5.7
2018-Aug-13 07:01N 30°23' W 086°54'  
2018-Aug-09 02:09N 30°23' W 086°57'1 7.0
2018-Aug-09 02:00N 30°23' W 086°55'3 6.9
2018-Aug-09 01:30N 30°24' W 086°51'4 7.0
2018-Aug-09 01:00N 30°24' W 086°47'11 6.4
2018-Aug-08 23:21N 30°24' W 086°35'3 6.3
2018-Aug-08 22:52N 30°25' W 086°32'1 2.6
2018-Aug-08 22:25N 30°26' W 086°31'3 6.3
2018-Aug-08 22:00N 30°27' W 086°28'3 6.1
2018-Aug-08 21:29N 30°31' W 086°29'0 0.0
2018-Aug-07 02:18N 30°31' W 086°29'0 0.4
2018-Aug-07 02:00N 30°31' W 086°29'2 4.2
2018-Aug-07 01:30N 30°29' W 086°28'2 4.3
2018-Aug-07 01:01N 30°27' W 086°29'1 2.2
2018-Aug-07 00:30N 30°26' W 086°30'8 5.2
2018-Aug-06 23:00N 30°24' W 086°39'2 4.6
2018-Aug-06 22:28N 30°24' W 086°42'2 4.9
2018-Aug-06 22:00N 30°24' W 086°45'3 5.5
2018-Aug-06 21:30N 30°24' W 086°48'3 5.6
2018-Aug-06 21:00N 30°24' W 086°51'3 5.6
2018-Aug-06 20:30N 30°24' W 086°54'  
Track history (hours):
 
Tides and Currents Weather Stations Pressure Air Temp Water Temp Dewpoint Dewpoint Depression Visibility Wind Speed Wind Dir Waves Ship Positions

Mobile

Owner: Kirby Inland Marine, LP, Houston, TX. More information available from US FCC via Universal Licensing System and Coast Guard Vessel Documentation Center.

Last reported at 2018-Aug-14 04:29 UTC. Time now 2018-Aug-14 07:03 UTC.
Position N 30°23' W 086°56'.

Length 206 m.

Type: . MMSI: 367314430.

Date/timePositionNaut miles runAvg speedWind from/ knotsBaromVisibWave heightAir tempDewpointWater temp
2018-Aug-14 04:29N 30°23' W 086°56'3 6.8
2018-Aug-14 04:00N 30°24' W 086°53'3 6.8
2018-Aug-14 03:30N 30°24' W 086°49'3 6.7
2018-Aug-14 03:00N 30°24' W 086°45'8 5.9
2018-Aug-14 01:37N 30°24' W 086°35'1 6.5
2018-Aug-14 01:27N 30°24' W 086°34'2 3.7
2018-Aug-14 00:47N 30°25' W 086°32'1 3.2
2018-Aug-14 00:30N 30°26' W 086°31'3 5.0
2018-Aug-13 23:59N 30°27' W 086°28'1 2.7
2018-Aug-13 23:30N 30°29' W 086°28'2 0.2
2018-Aug-13 12:27N 30°31' W 086°29'1 3.2
2018-Aug-13 12:00N 30°29' W 086°29'1 2.6
2018-Aug-13 11:30N 30°28' W 086°28'3 5.7
2018-Aug-13 11:00N 30°26' W 086°30'7 5.4
2018-Aug-13 09:47N 30°24' W 086°38'2 4.5
2018-Aug-13 09:27N 30°24' W 086°40'2 4.8
2018-Aug-13 09:01N 30°24' W 086°42'2 4.9
2018-Aug-13 08:31N 30°24' W 086°45'3 5.5
2018-Aug-13 08:01N 30°24' W 086°48'3 5.6
2018-Aug-13 07:31N 30°24' W 086°51'3 5.7
2018-Aug-13 07:01N 30°23' W 086°54'  
2018-Aug-09 02:09N 30°23' W 086°57'1 7.0
2018-Aug-09 02:00N 30°23' W 086°55'3 6.9
2018-Aug-09 01:30N 30°24' W 086°51'4 7.0
2018-Aug-09 01:00N 30°24' W 086°47'11 6.4
2018-Aug-08 23:21N 30°24' W 086°35'3 6.3
2018-Aug-08 22:52N 30°25' W 086°32'1 2.6
2018-Aug-08 22:25N 30°26' W 086°31'3 6.3
2018-Aug-08 22:00N 30°27' W 086°28'3 6.1
2018-Aug-08 21:29N 30°31' W 086°29'0 0.0
2018-Aug-07 02:18N 30°31' W 086°29'0 0.4
2018-Aug-07 02:00N 30°31' W 086°29'2 4.2
2018-Aug-07 01:30N 30°29' W 086°28'2 4.3
2018-Aug-07 01:01N 30°27' W 086°29'1 2.2
2018-Aug-07 00:30N 30°26' W 086°30'8 5.2
2018-Aug-06 23:00N 30°24' W 086°39'2 4.6
2018-Aug-06 22:28N 30°24' W 086°42'2 4.9
2018-Aug-06 22:00N 30°24' W 086°45'3 5.5
2018-Aug-06 21:30N 30°24' W 086°48'3 5.6
2018-Aug-06 21:00N 30°24' W 086°51'3 5.6
2018-Aug-06 20:30N 30°24' W 086°54'  

Dump ship's entire track history